createdAt,value
2023-01-05T00:01:51.422Z,93.60
2023-01-05T00:04:20.145Z,93.80
2023-01-05T00:06:50.836Z,93.70
2023-01-05T00:09:19.967Z,93.60
2023-01-05T00:12:05.834Z,93.60
2023-01-05T00:14:52.189Z,93.50
2023-01-05T00:17:39.672Z,93.50
2023-01-05T00:20:31.542Z,93.50
2023-01-05T00:23:01.656Z,93.50
2023-01-05T00:25:31.355Z,93.50
2023-01-05T00:27:59.949Z,93.50
2023-01-05T00:30:31.027Z,93.40
2023-01-05T00:32:59.356Z,93.40
2023-01-05T00:35:28.167Z,93.40
2023-01-05T00:37:56.506Z,93.40
2023-01-05T00:40:26.234Z,93.40
2023-01-05T00:42:54.452Z,93.40
2023-01-05T00:45:23.087Z,93.40
2023-01-05T00:47:53.859Z,93.50
2023-01-05T00:50:23.370Z,93.40
2023-01-05T00:52:51.839Z,93.50
2023-01-05T00:55:20.282Z,93.50
2023-01-05T00:57:50.039Z,93.50
2023-01-05T01:00:20.190Z,93.50
2023-01-05T01:02:48.669Z,93.70
2023-01-05T01:05:16.942Z,93.70
2023-01-05T01:07:45.346Z,93.70
2023-01-05T01:10:14.117Z,94.00
2023-01-05T01:15:12.613Z,94.10
2023-01-05T01:17:40.975Z,94.20
2023-01-05T01:20:10.636Z,94.30
2023-01-05T01:22:38.933Z,94.40
2023-01-05T01:25:07.853Z,94.70
2023-01-05T01:27:36.155Z,94.90
2023-01-05T01:30:05.271Z,94.80
2023-01-05T01:32:34.946Z,94.90
2023-01-05T01:35:03.202Z,94.80
2023-01-05T01:37:31.491Z,95.00
2023-01-05T01:39:59.792Z,95.00
2023-01-05T01:42:28.160Z,95.10
2023-01-05T01:44:58.737Z,95.40
2023-01-05T01:47:36.336Z,95.30
2023-01-05T01:50:11.470Z,95.30
2023-01-05T01:52:40.572Z,95.40
2023-01-05T01:55:09.732Z,95.70
2023-01-05T01:57:38.496Z,96.10
2023-01-05T02:00:09.238Z,96.30
2023-01-05T02:02:38.963Z,96.10
2023-01-05T02:05:12.363Z,96.10
2023-01-05T02:07:45.671Z,96.50
2023-01-05T02:10:15.255Z,96.00
2023-01-05T02:12:59.911Z,96.00
2023-01-05T02:15:37.895Z,96.00
2023-01-05T02:18:22.004Z,95.90
2023-01-05T02:21:14.928Z,95.70
2023-01-05T02:24:13.223Z,95.90
2023-01-05T02:27:19.865Z,95.50
2023-01-05T02:30:35.000Z,95.50
2023-01-05T02:33:12.651Z,95.60
2023-01-05T02:35:48.024Z,95.70
2023-01-05T02:38:24.806Z,95.80
2023-01-05T02:40:58.505Z,95.70
2023-01-05T02:43:28.497Z,95.70
2023-01-05T02:45:56.892Z,95.60
2023-01-05T02:48:26.886Z,95.50
2023-01-05T02:51:01.381Z,95.60
2023-01-05T02:53:33.895Z,95.50
2023-01-05T02:56:07.491Z,95.60
2023-01-05T02:58:40.402Z,95.60
2023-01-05T03:01:12.309Z,95.50
2023-01-05T03:03:45.015Z,95.50
2023-01-05T03:06:17.428Z,95.60
2023-01-05T03:08:52.106Z,95.60
2023-01-05T03:11:38.068Z,95.60
2023-01-05T03:14:14.217Z,95.50
2023-01-05T03:16:42.528Z,95.40
2023-01-05T03:19:31.377Z,95.40
2023-01-05T03:22:20.262Z,95.40
2023-01-05T03:25:07.369Z,95.40
2023-01-05T03:27:54.744Z,95.40
2023-01-05T03:30:45.168Z,95.30
2023-01-05T03:33:39.678Z,95.30
2023-01-05T03:36:12.374Z,95.50
2023-01-05T03:38:44.003Z,95.60
2023-01-05T03:41:17.901Z,95.60
2023-01-05T03:43:48.945Z,95.60
2023-01-05T03:46:21.339Z,95.60
2023-01-05T03:48:50.132Z,95.80
2023-01-05T03:51:19.825Z,95.80
2023-01-05T03:53:48.010Z,95.70
2023-01-05T03:56:16.315Z,95.80
2023-01-05T03:58:44.607Z,95.70
2023-01-05T04:01:13.046Z,95.60
2023-01-05T04:03:41.919Z,95.60
2023-01-05T04:06:10.390Z,95.70
2023-01-05T04:08:40.100Z,95.80
2023-01-05T04:11:17.226Z,95.90
2023-01-05T04:13:45.667Z,95.90
2023-01-05T04:16:14.123Z,96.10
2023-01-05T04:18:42.441Z,96.00
2023-01-05T04:21:10.780Z,96.00
2023-01-05T04:23:40.641Z,96.10
2023-01-05T04:26:09.263Z,96.10
2023-01-05T04:28:37.672Z,96.10
2023-01-05T04:31:06.264Z,96.10
2023-01-05T04:33:34.614Z,96.10
2023-01-05T04:36:02.934Z,96.20
2023-01-05T04:38:31.183Z,96.10
2023-01-05T04:41:00.824Z,95.90
2023-01-05T04:43:29.086Z,95.90
2023-01-05T04:45:57.387Z,95.90
2023-01-05T04:48:25.811Z,95.90
2023-01-05T04:50:55.356Z,95.90
2023-01-05T04:53:23.923Z,96.00
2023-01-05T04:55:52.280Z,96.00
2023-01-05T04:58:22.344Z,96.10
2023-01-05T05:00:51.043Z,96.20
2023-01-05T05:03:19.461Z,96.20
2023-01-05T05:05:47.830Z,96.40
2023-01-05T05:08:16.042Z,96.50
2023-01-05T05:10:44.374Z,96.60
2023-01-05T05:13:12.604Z,96.70
2023-01-05T05:15:42.289Z,96.70
2023-01-05T05:18:10.570Z,96.80
2023-01-05T05:20:39.370Z,96.90
2023-01-05T05:23:07.678Z,97.10
2023-01-05T05:25:35.949Z,97.30
2023-01-05T05:28:04.340Z,97.30
2023-01-05T05:30:32.712Z,97.50
2023-01-05T05:33:02.413Z,97.60
2023-01-05T05:35:30.905Z,97.60
2023-01-05T05:37:59.183Z,97.60
2023-01-05T05:40:28.403Z,97.60
2023-01-05T05:42:56.933Z,97.70
2023-01-05T05:45:25.187Z,97.80
2023-01-05T05:47:53.530Z,98.00
2023-01-05T05:50:23.193Z,98.00
2023-01-05T05:52:51.536Z,98.00
2023-01-05T05:55:19.823Z,98.20
2023-01-05T05:57:48.049Z,98.30
2023-01-05T06:00:17.249Z,98.20
2023-01-05T06:02:45.663Z,98.20
2023-01-05T06:05:14.110Z,98.50
2023-01-05T06:07:43.719Z,98.70
2023-01-05T06:10:12.163Z,98.90
2023-01-05T06:12:40.624Z,99.20
2023-01-05T06:15:10.196Z,99.40
2023-01-05T06:17:38.525Z,99.90
2023-01-05T06:20:08.643Z,99.90
2023-01-05T06:22:37.026Z,99.80
2023-01-05T06:25:07.418Z,99.90
2023-01-05T06:27:35.824Z,99.90
2023-01-05T06:30:04.324Z,99.90
2023-01-05T06:32:32.831Z,99.90
2023-01-05T06:35:01.114Z,99.90
2023-01-05T06:37:29.417Z,99.90
2023-01-05T06:39:57.697Z,99.90
2023-01-05T06:42:27.430Z,99.90
2023-01-05T06:44:55.720Z,99.90
2023-01-05T06:47:24.011Z,99.90
2023-01-05T06:49:52.277Z,99.90
2023-01-05T06:52:20.507Z,99.90
2023-01-05T06:54:48.782Z,99.90
2023-01-05T06:57:17.171Z,99.90
2023-01-05T06:59:47.084Z,99.90
2023-01-05T07:02:16.086Z,99.90
2023-01-05T07:04:44.500Z,99.90
2023-01-05T07:07:14.093Z,99.90
2023-01-05T07:09:42.684Z,99.90
2023-01-05T07:12:10.941Z,99.90
2023-01-05T07:14:39.317Z,99.90
2023-01-05T07:17:09.053Z,99.90
2023-01-05T07:19:37.431Z,99.90
2023-01-05T07:22:05.915Z,99.90
2023-01-05T07:24:34.338Z,99.90
2023-01-05T07:27:09.254Z,99.90
2023-01-05T07:29:38.198Z,99.90
2023-01-05T07:32:08.564Z,99.90
2023-01-05T07:34:37.393Z,99.90
2023-01-05T07:37:05.684Z,99.90
2023-01-05T07:39:34.022Z,99.90
2023-01-05T07:42:02.327Z,99.90
2023-01-05T07:44:30.623Z,99.90
2023-01-05T07:46:59.342Z,99.90
2023-01-05T07:49:30.108Z,99.90
2023-01-05T07:51:58.479Z,99.90
2023-01-05T07:54:27.532Z,99.80
2023-01-05T07:56:55.823Z,99.80
2023-01-05T07:59:24.143Z,99.80
2023-01-05T08:01:52.534Z,99.90
2023-01-05T08:04:21.084Z,99.70
2023-01-05T08:06:52.565Z,99.60
2023-01-05T08:09:38.283Z,99.90
2023-01-05T08:12:06.952Z,99.50
2023-01-05T08:14:35.324Z,99.90
2023-01-05T08:17:03.635Z,99.60
2023-01-05T08:19:32.032Z,99.40
2023-01-05T08:22:01.873Z,99.10
2023-01-05T08:24:30.159Z,98.80
2023-01-05T08:26:58.539Z,98.80
2023-01-05T08:29:27.092Z,98.90
2023-01-05T08:31:55.421Z,98.90
2023-01-05T08:34:30.039Z,98.80
2023-01-05T08:37:02.674Z,98.70
2023-01-05T08:39:30.979Z,98.70
2023-01-05T08:42:02.804Z,98.70
2023-01-05T08:44:31.389Z,98.70
2023-01-05T08:46:59.759Z,98.90
2023-01-05T08:49:28.067Z,98.80
2023-01-05T08:51:56.308Z,98.80
2023-01-05T08:54:26.015Z,98.80
2023-01-05T08:56:54.425Z,98.80
2023-01-05T08:59:22.853Z,98.80
2023-01-05T09:01:51.476Z,98.80
2023-01-05T09:04:30.035Z,98.80
2023-01-05T09:06:58.484Z,98.90
2023-01-05T09:09:29.875Z,98.90
2023-01-05T09:12:01.346Z,98.80
2023-01-05T09:14:29.738Z,98.90
2023-01-05T09:17:07.032Z,98.80
2023-01-05T09:19:37.731Z,98.90
2023-01-05T09:22:06.126Z,98.90
2023-01-05T09:24:36.916Z,98.80
2023-01-05T09:27:07.304Z,98.90
2023-01-05T09:29:35.603Z,98.80
2023-01-05T09:32:03.945Z,98.80
2023-01-05T09:34:32.233Z,98.90
2023-01-05T09:37:00.527Z,98.90
2023-01-05T09:39:28.965Z,99.00
2023-01-05T09:42:02.542Z,99.10
2023-01-05T09:44:32.884Z,99.30
2023-01-05T09:47:04.638Z,99.00
2023-01-05T09:49:35.192Z,98.90
2023-01-05T09:52:09.432Z,99.00
2023-01-05T09:54:39.740Z,98.70
2023-01-05T09:57:17.398Z,98.70
2023-01-05T09:59:48.001Z,98.70
2023-01-05T10:02:26.662Z,98.20
2023-01-05T10:04:56.666Z,98.40
2023-01-05T10:07:39.337Z,98.40
2023-01-05T10:10:16.554Z,98.10
2023-01-05T10:13:05.476Z,98.10
2023-01-05T10:15:42.023Z,97.60
2023-01-05T10:18:13.346Z,97.40
2023-01-05T10:20:53.565Z,97.30
2023-01-05T10:23:45.569Z,97.00
2023-01-05T10:26:21.046Z,97.20
2023-01-05T10:28:56.284Z,97.10
2023-01-05T10:31:28.293Z,96.90
2023-01-05T10:34:07.139Z,96.80
2023-01-05T10:37:08.773Z,96.90
2023-01-05T10:40:00.473Z,97.00
2023-01-05T10:42:40.889Z,97.00
2023-01-05T10:45:12.881Z,96.90
2023-01-05T10:47:42.209Z,96.90
2023-01-05T10:50:38.491Z,96.90
2023-01-05T10:53:12.482Z,97.10
2023-01-05T10:55:49.802Z,96.90
2023-01-05T10:58:26.027Z,97.00
2023-01-05T11:00:57.521Z,97.00
2023-01-05T11:04:14.895Z,97.10
2023-01-05T11:06:25.147Z,97.20
2023-01-05T11:08:53.838Z,97.20
2023-01-05T11:11:25.034Z,97.20
2023-01-05T11:13:57.449Z,97.30
2023-01-05T11:16:29.343Z,97.30
2023-01-05T11:19:00.452Z,97.20
2023-01-05T11:21:43.463Z,97.30
2023-01-05T11:24:29.703Z,97.30
2023-01-05T11:27:00.028Z,97.30
2023-01-05T11:29:28.773Z,97.30
2023-01-05T11:32:00.860Z,97.20
2023-01-05T11:34:47.681Z,97.20
2023-01-05T11:37:25.177Z,97.10
2023-01-05T11:39:55.785Z,96.90
2023-01-05T11:42:32.271Z,96.90
2023-01-05T11:45:03.450Z,96.80
2023-01-05T11:47:43.276Z,96.80
2023-01-05T11:50:21.696Z,96.90
2023-01-05T11:52:51.686Z,96.90
2023-01-05T11:55:39.925Z,96.80
2023-01-05T11:58:20.568Z,97.20
2023-01-05T12:01:39.723Z,96.80
2023-01-05T12:04:30.463Z,96.80
2023-01-05T12:07:10.368Z,96.60
2023-01-05T12:09:40.308Z,96.50
2023-01-05T12:12:22.482Z,96.50
2023-01-05T12:15:09.081Z,96.40
2023-01-05T12:17:48.890Z,96.20
2023-01-05T12:20:49.629Z,95.90
2023-01-05T12:23:50.652Z,95.70
2023-01-05T12:26:27.606Z,95.60
2023-01-05T12:35:42.604Z,95.20
2023-01-05T12:38:33.441Z,95.20
2023-01-05T12:41:27.419Z,94.80
2023-01-05T12:44:10.573Z,94.70
2023-01-05T12:46:49.676Z,94.70
2023-01-05T12:49:22.854Z,94.50
2023-01-05T12:52:01.025Z,94.30
2023-01-05T12:54:39.467Z,94.20
2023-01-05T12:57:13.522Z,94.10
2023-01-05T12:59:49.932Z,94.10
2023-01-05T13:02:30.158Z,94.20
2023-01-05T13:05:03.731Z,94.10
2023-01-05T13:07:37.296Z,94.30
2023-01-05T13:10:16.260Z,94.40
2023-01-05T13:12:44.865Z,94.30
2023-01-05T13:15:19.990Z,94.50
2023-01-05T13:17:50.386Z,93.70
2023-01-05T13:20:28.356Z,93.10
2023-01-05T13:23:04.431Z,92.70
2023-01-05T13:25:40.775Z,92.60
2023-01-05T13:28:27.203Z,91.80
2023-01-05T13:31:28.688Z,91.90
2023-01-05T13:34:19.783Z,91.10
2023-01-05T13:37:20.165Z,90.10
2023-01-05T13:40:23.337Z,86.90
2023-01-05T13:46:07.986Z,83.40
2023-01-05T13:49:06.344Z,82.50
2023-01-05T13:51:54.501Z,82.60
2023-01-05T13:54:43.585Z,82.20
2023-01-05T13:57:26.605Z,82.30
2023-01-05T14:00:06.598Z,82.80
2023-01-05T14:02:39.545Z,83.30
2023-01-05T14:05:16.405Z,84.00
2023-01-05T14:07:44.780Z,84.60
2023-01-05T14:10:23.856Z,85.00
2023-01-05T14:12:55.305Z,85.60
2023-01-05T14:15:42.636Z,86.30
2023-01-05T14:18:11.873Z,87.90
2023-01-05T14:20:46.842Z,87.70
2023-01-05T14:23:52.436Z,88.20
2023-01-05T14:26:59.163Z,88.80
2023-01-05T14:30:09.782Z,89.40
2023-01-05T14:32:41.472Z,90.00
2023-01-05T14:35:37.160Z,90.20
2023-01-05T14:38:08.655Z,90.50
2023-01-05T14:40:39.851Z,91.00
2023-01-05T14:43:21.856Z,90.90
2023-01-05T14:46:02.541Z,91.10
2023-01-05T14:48:35.039Z,91.60
2023-01-05T14:51:21.103Z,91.90
2023-01-05T14:53:51.287Z,92.20
2023-01-05T14:56:23.232Z,92.30
2023-01-05T14:59:00.950Z,92.60
2023-01-05T15:01:35.432Z,92.90
2023-01-05T15:04:09.839Z,93.10
2023-01-05T15:06:50.519Z,93.20
2023-01-05T15:10:04.856Z,93.40
2023-01-05T15:12:48.274Z,93.70
2023-01-05T15:15:45.024Z,93.80
2023-01-05T15:18:36.727Z,93.90
2023-01-05T15:21:44.836Z,94.00
2023-01-05T15:24:53.236Z,94.00
2023-01-05T15:27:37.659Z,94.10
2023-01-05T15:30:23.031Z,94.20
2023-01-05T15:32:58.619Z,94.40
2023-01-05T15:35:35.980Z,94.40
2023-01-05T15:38:21.758Z,94.30
2023-01-05T15:40:53.645Z,94.30
2023-01-05T15:43:22.609Z,94.40
2023-01-05T15:45:53.604Z,94.50
2023-01-05T15:48:28.665Z,94.60
2023-01-05T15:50:59.579Z,94.60
2023-01-05T15:53:33.021Z,95.00
2023-01-05T15:56:02.211Z,94.60
2023-01-05T15:58:32.932Z,94.60
2023-01-05T16:01:06.727Z,94.60
2023-01-05T16:03:37.424Z,94.70
2023-01-05T16:06:10.104Z,94.70
2023-01-05T16:08:44.417Z,94.80
2023-01-05T16:11:16.845Z,94.80
2023-01-05T16:13:49.766Z,94.80
2023-01-05T16:16:49.876Z,94.80
2023-01-05T16:19:13.273Z,94.70
2023-01-05T16:21:45.442Z,94.70
2023-01-05T16:24:24.224Z,94.70
2023-01-05T16:26:52.546Z,94.70
2023-01-05T16:29:32.644Z,94.80
2023-01-05T16:32:01.561Z,94.70
2023-01-05T16:34:31.562Z,94.70
2023-01-05T16:37:02.153Z,94.70
2023-01-05T16:39:38.380Z,94.80
2023-01-05T16:42:40.004Z,94.80
2023-01-05T16:45:15.477Z,94.80
2023-01-05T16:47:44.683Z,94.70
2023-01-05T16:51:00.700Z,94.70
2023-01-05T16:53:29.355Z,94.70
2023-01-05T16:56:00.724Z,94.80
2023-01-05T16:58:38.465Z,94.80
2023-01-05T17:01:25.744Z,94.70
2023-01-05T17:03:54.976Z,94.70
2023-01-05T17:06:28.695Z,94.60
2023-01-05T17:09:02.824Z,94.60
2023-01-05T17:11:41.493Z,94.70
2023-01-05T17:14:11.584Z,94.60
2023-01-05T17:16:40.019Z,94.70
2023-01-05T17:19:15.849Z,94.70
2023-01-05T17:21:58.842Z,94.70
2023-01-05T17:24:28.574Z,94.60
2023-01-05T17:26:58.331Z,94.60
2023-01-05T17:29:27.936Z,94.60
2023-01-05T17:31:57.282Z,94.60
2023-01-05T17:34:25.822Z,94.60
2023-01-05T17:36:56.852Z,94.60
2023-01-05T17:39:28.770Z,94.60
2023-01-05T17:42:21.254Z,94.50
2023-01-05T17:44:52.364Z,94.50
2023-01-05T17:47:20.804Z,94.50
2023-01-05T17:49:49.074Z,94.40
2023-01-05T17:52:17.614Z,94.40
2023-01-05T17:54:45.889Z,94.30
2023-01-05T17:57:15.733Z,94.30
2023-01-05T17:59:44.707Z,94.30
2023-01-05T18:02:13.146Z,94.60
2023-01-05T18:04:41.610Z,94.20
2023-01-05T18:07:09.912Z,94.20
2023-01-05T18:09:38.854Z,94.20
2023-01-05T18:12:07.765Z,94.20
2023-01-05T18:17:07.985Z,94.20
2023-01-05T18:19:36.420Z,94.20
2023-01-05T18:22:04.815Z,94.30
2023-01-05T18:24:33.041Z,94.10
2023-01-05T18:27:01.407Z,94.00
2023-01-05T18:29:29.649Z,93.90
2023-01-05T18:31:59.312Z,93.90
2023-01-05T18:34:27.546Z,93.80
2023-01-05T18:37:01.978Z,93.80
2023-01-05T18:39:34.712Z,93.80
2023-01-05T18:42:03.029Z,93.70
2023-01-05T18:44:31.342Z,93.70
2023-01-05T18:47:00.967Z,93.60
2023-01-05T18:49:29.347Z,93.60
2023-01-05T18:51:57.653Z,93.60
2023-01-05T18:54:26.392Z,93.50
2023-01-05T18:56:54.645Z,93.50
2023-01-05T18:59:23.271Z,93.50
2023-01-05T19:01:51.678Z,93.50
2023-01-05T19:04:21.444Z,93.40
2023-01-05T19:06:49.747Z,93.50
2023-01-05T19:09:18.033Z,93.50
2023-01-05T19:11:47.652Z,93.50
2023-01-05T19:14:18.042Z,93.40
2023-01-05T19:16:47.270Z,93.40
2023-01-05T19:19:16.063Z,93.30
2023-01-05T19:21:48.969Z,93.30
2023-01-05T19:24:18.593Z,93.20
2023-01-05T19:26:48.903Z,93.20
2023-01-05T19:29:19.023Z,93.20
2023-01-05T19:31:48.347Z,93.10
2023-01-05T19:34:19.537Z,93.00
2023-01-05T19:36:49.580Z,92.90
2023-01-05T19:39:19.278Z,92.80
2023-01-05T19:41:51.301Z,92.80
2023-01-05T19:44:22.381Z,92.90
2023-01-05T19:46:52.346Z,92.90
2023-01-05T19:49:22.003Z,92.80
2023-01-05T19:51:52.033Z,92.70
2023-01-05T19:54:22.524Z,92.50
2023-01-05T19:56:51.055Z,92.50
2023-01-05T19:59:21.671Z,92.50
2023-01-05T20:01:50.171Z,92.40
2023-01-05T20:04:18.780Z,92.20
2023-01-05T20:06:47.517Z,92.20
2023-01-05T20:09:19.289Z,92.00
2023-01-05T20:11:49.794Z,92.10
2023-01-05T20:14:20.852Z,92.10
2023-01-05T20:16:50.816Z,92.20
2023-01-05T20:19:20.000Z,92.20
2023-01-05T20:21:49.375Z,92.20
2023-01-05T20:24:21.867Z,92.20
2023-01-05T20:26:51.046Z,92.20
2023-01-05T20:29:21.116Z,92.20
2023-01-05T20:31:54.156Z,92.10
2023-01-05T20:34:25.341Z,92.00
2023-01-05T20:36:53.626Z,92.00
2023-01-05T20:39:23.681Z,92.00
2023-01-05T20:41:54.079Z,92.10
2023-01-05T20:44:24.571Z,92.10
2023-01-05T20:46:54.674Z,92.10
2023-01-05T20:49:23.544Z,92.10
2023-01-05T20:51:51.808Z,92.10
2023-01-05T20:54:20.470Z,92.20
2023-01-05T20:56:50.212Z,92.20
2023-01-05T20:59:22.919Z,92.10
2023-01-05T21:01:51.895Z,92.00
2023-01-05T21:04:20.809Z,92.00
2023-01-05T21:06:51.450Z,92.10
2023-01-05T21:09:20.188Z,92.00
2023-01-05T21:11:49.896Z,91.90
2023-01-05T21:14:19.768Z,91.90
2023-01-05T21:16:50.757Z,91.90
2023-01-05T21:19:22.011Z,92.00
2023-01-05T21:21:51.547Z,92.10
2023-01-05T21:24:19.851Z,92.10
2023-01-05T21:26:49.647Z,92.10
2023-01-05T21:29:20.619Z,92.20
2023-01-05T21:31:49.159Z,92.20
2023-01-05T21:34:17.998Z,92.20
2023-01-05T21:36:48.581Z,92.20
2023-01-05T21:39:19.948Z,92.20
2023-01-05T21:42:07.981Z,92.40
2023-01-05T21:44:36.756Z,92.30
2023-01-05T21:47:06.764Z,92.20
2023-01-05T21:49:35.443Z,92.20
2023-01-05T21:52:22.026Z,92.10
2023-01-05T21:55:07.650Z,92.10
2023-01-05T21:57:40.793Z,92.10
2023-01-05T22:00:10.943Z,92.10
2023-01-05T22:02:39.332Z,92.00
2023-01-05T22:05:08.489Z,92.30
2023-01-05T22:07:36.945Z,91.90
2023-01-05T22:10:05.927Z,91.80
2023-01-05T22:12:34.220Z,91.80
2023-01-05T22:15:04.238Z,92.10
2023-01-05T22:17:34.235Z,91.80
2023-01-05T22:20:02.470Z,91.70
2023-01-05T22:22:30.796Z,91.80
2023-01-05T22:24:59.050Z,91.80
2023-01-05T22:27:27.341Z,91.80
2023-01-05T22:29:55.562Z,91.90
2023-01-05T22:32:25.313Z,91.90
2023-01-05T22:34:53.598Z,91.90
2023-01-05T22:37:21.836Z,91.90
2023-01-05T22:39:50.116Z,91.90
2023-01-05T22:42:18.354Z,91.90
2023-01-05T22:44:46.892Z,91.90
2023-01-05T22:47:15.223Z,91.80
2023-01-05T22:49:44.950Z,91.80
2023-01-05T22:52:13.319Z,91.80
2023-01-05T22:54:41.659Z,91.80
2023-01-05T22:57:09.947Z,91.80
2023-01-05T22:59:38.287Z,91.70
2023-01-05T23:02:06.584Z,91.70
2023-01-05T23:04:35.019Z,91.70
2023-01-05T23:07:04.654Z,91.80
2023-01-05T23:09:32.959Z,91.80
2023-01-05T23:12:01.741Z,91.90
2023-01-05T23:14:30.528Z,91.90
2023-01-05T23:16:58.852Z,91.90
2023-01-05T23:19:27.154Z,91.90
2023-01-05T23:21:55.496Z,92.00
2023-01-05T23:24:25.308Z,92.00
2023-01-05T23:26:53.619Z,92.10
2023-01-05T23:29:21.902Z,92.00
2023-01-05T23:31:50.215Z,92.10
2023-01-05T23:34:18.585Z,92.10
2023-01-05T23:36:46.844Z,92.20
2023-01-05T23:39:15.132Z,92.20
2023-01-05T23:41:45.084Z,92.20
2023-01-05T23:44:14.630Z,92.20
2023-01-05T23:46:42.937Z,92.20
2023-01-05T23:49:11.143Z,92.20
2023-01-05T23:51:39.410Z,92.20
2023-01-05T23:54:07.877Z,92.20
2023-01-05T23:56:36.176Z,92.20
2023-01-05T23:59:07.936Z,92.20
